Time;durP1;ratioP1;P1;durP2;ratioP2;P2;SDS_P1;SDS_P2;PMS_P1;PMS_P2;Temp;Humidity;BMP_temperature;BMP_pressure;BME280_temperature;BME280_humidity;BME280_pressure;Samples;Min_cycle;Max_cycle;Signal;HPM_P1;HPM_P2
2023/05/30 00:00:18;;;;;;;6.35;2.72;;;;;;;;;;10417735;28;20093;-78
2023/05/30 00:05:21;;;;;;;8.27;2.67;;;;;;;;;;10420287;28;21605;-78
2023/05/30 00:10:23;;;;;;;6.60;2.88;;;;;;;;;;10415362;28;20124;-79
2023/05/30 00:15:28;;;;;;;4.10;2.25;;;;;;;;;;10411798;28;20045;-77
2023/05/30 00:20:31;;;;;;;5.50;2.45;;;;;;;;;;10415296;28;20046;-78
2023/05/30 00:25:33;;;;;;;5.67;2.57;;;;;;;;;;10417248;28;20308;-78
2023/05/30 00:30:37;;;;;;;6.22;2.45;;;;;;;;;;10410708;28;20141;-78
2023/05/30 00:35:40;;;;;;;7.07;2.55;;;;;;;;;;10418728;28;20128;-77
2023/05/30 00:40:43;;;;;;;7.20;2.40;;;;;;;;;;10418653;28;20041;-77
2023/05/30 00:45:47;;;;;;;6.38;2.90;;;;;;;;;;10419313;28;20126;-76
2023/05/30 00:50:50;;;;;;;5.60;2.65;;;;;;;;;;10415995;28;20048;-76
2023/05/30 00:55:53;;;;;;;7.07;2.53;;;;;;;;;;10416826;28;20061;-76
2023/05/30 01:00:57;;;;;;;6.25;2.92;;;;;;;;;;10413310;28;20050;-77
2023/05/30 01:06:01;;;;;;;8.35;2.70;;;;;;;;;;10412395;28;20137;-77
2023/05/30 01:11:11;;;;;;;9.20;2.93;;;;;;;;;;10416871;28;20073;-77
2023/05/30 01:16:17;;;;;;;8.98;3.10;;;;;;;;;;10416452;28;20719;-77
2023/05/30 01:21:21;;;;;;;7.25;2.90;;;;;;;;;;10399575;28;20037;-77
2023/05/30 01:26:32;;;;;;;9.00;2.78;;;;;;;;;;10414079;28;20057;-77
2023/05/30 01:31:36;;;;;;;3.72;2.28;;;;;;;;;;10414160;28;20106;-76
2023/05/30 01:36:38;;;;;;;5.63;2.80;;;;;;;;;;10412530;28;20044;-77
2023/05/30 01:41:47;;;;;;;8.40;2.90;;;;;;;;;;10413766;28;20113;-77
2023/05/30 01:46:53;;;;;;;5.78;2.53;;;;;;;;;;10412977;28;20037;-76
2023/05/30 01:51:58;;;;;;;8.05;3.00;;;;;;;;;;10413469;28;20388;-76
2023/05/30 01:57:04;;;;;;;5.90;2.67;;;;;;;;;;10407256;28;20076;-78
2023/05/30 02:02:09;;;;;;;4.95;2.53;;;;;;;;;;10416515;28;20069;-78
2023/05/30 02:07:12;;;;;;;4.80;2.40;;;;;;;;;;10414900;28;20061;-78
2023/05/30 02:12:14;;;;;;;7.22;2.63;;;;;;;;;;10397721;28;20068;-79
2023/05/30 02:17:20;;;;;;;6.63;2.47;;;;;;;;;;10417257;28;20296;-79
2023/05/30 02:22:23;;;;;;;5.57;2.30;;;;;;;;;;10421212;28;20129;-79
2023/05/30 02:27:26;;;;;;;7.30;2.60;;;;;;;;;;10422514;28;20041;-79
2023/05/30 02:32:30;;;;;;;5.60;2.28;;;;;;;;;;10420666;28;20093;-77
2023/05/30 02:37:33;;;;;;;5.10;2.30;;;;;;;;;;10423014;28;20042;-78
2023/05/30 02:42:35;;;;;;;5.40;2.70;;;;;;;;;;10417722;28;20041;-78
2023/05/30 02:47:39;;;;;;;4.03;1.85;;;;;;;;;;10421868;28;20247;-77
2023/05/30 02:52:42;;;;;;;5.75;2.15;;;;;;;;;;10419222;28;20060;-78
2023/05/30 02:57:45;;;;;;;3.77;2.17;;;;;;;;;;10419601;28;20118;-77
2023/05/30 03:02:50;;;;;;;8.60;2.13;;;;;;;;;;10419546;28;20055;-77
2023/05/30 03:07:53;;;;;;;4.13;1.90;;;;;;;;;;10419931;28;20037;-77
2023/05/30 03:12:56;;;;;;;6.73;2.47;;;;;;;;;;10420039;28;20041;-77
2023/05/30 03:18:01;;;;;;;4.68;1.98;;;;;;;;;;10421191;28;20049;-77
2023/05/30 03:23:04;;;;;;;4.32;2.00;;;;;;;;;;10418440;28;20065;-76
2023/05/30 03:28:06;;;;;;;4.72;2.58;;;;;;;;;;10419231;28;20105;-76
2023/05/30 03:33:11;;;;;;;4.78;2.28;;;;;;;;;;10416658;28;20064;-76
2023/05/30 03:38:13;;;;;;;4.65;2.10;;;;;;;;;;10398788;28;20519;-76
2023/05/30 03:43:16;;;;;;;5.43;2.07;;;;;;;;;;10417747;28;20105;-78
2023/05/30 03:48:20;;;;;;;5.80;2.17;;;;;;;;;;10407841;28;20084;-77
2023/05/30 03:53:23;;;;;;;;;;;;;;;;;;10418524;28;20069;-77
2023/05/30 03:58:25;;;;;;;5.18;2.60;;;;;;;;;;10417895;28;19967;-76
2023/05/30 04:03:30;;;;;;;4.17;2.37;;;;;;;;;;10416137;28;20054;-76
2023/05/30 04:08:33;;;;;;;4.90;2.50;;;;;;;;;;10418400;28;20042;-76
2023/05/30 04:13:35;;;;;;;7.18;2.67;;;;;;;;;;10423718;28;20073;-77
2023/05/30 04:18:43;;;;;;;4.45;1.92;;;;;;;;;;10411065;28;20041;-78
2023/05/30 04:23:46;;;;;;;4.68;2.20;;;;;;;;;;10419534;28;20119;-78
2023/05/30 04:28:50;;;;;;;3.78;2.22;;;;;;;;;;10396665;28;20072;-77
2023/05/30 04:33:55;;;;;;;6.78;2.50;;;;;;;;;;10419089;28;20068;-76
2023/05/30 04:38:58;;;;;;;7.07;2.30;;;;;;;;;;10411192;28;20065;-78
2023/05/30 04:44:03;;;;;;;4.55;2.17;;;;;;;;;;10414122;28;20132;-77
2023/05/30 04:49:07;;;;;;;7.95;2.50;;;;;;;;;;10416736;28;20038;-77
2023/05/30 04:54:10;;;;;;;4.10;2.03;;;;;;;;;;10412222;28;20061;-77
2023/05/30 04:59:13;;;;;;;4.47;2.23;;;;;;;;;;10414146;28;20038;-76
2023/05/30 05:04:17;;;;;;;5.15;2.50;;;;;;;;;;10413156;28;20072;-75
2023/05/30 05:09:20;;;;;;;5.70;2.35;;;;;;;;;;10409102;28;20107;-76
2023/05/30 05:14:23;;;;;;;;;;;;;;;;;;10410590;28;20503;-78
2023/05/30 05:19:27;;;;;;;4.40;2.47;;;;;;;;;;10411646;28;20455;-76
2023/05/30 05:24:31;;;;;;;4.57;2.30;;;;;;;;;;10418335;28;20060;-78
2023/05/30 05:29:33;;;;;;;7.00;2.57;;;;;;;;;;10409969;28;20073;-76
2023/05/30 05:34:37;;;;;;;5.70;2.60;;;;;;;;;;10415688;28;20420;-75
2023/05/30 05:39:40;;;;;;;5.75;2.38;;;;;;;;;;10407608;28;20122;-77
2023/05/30 05:44:46;;;;;;;5.60;2.60;;;;;;;;;;10413541;28;20132;-83
2023/05/30 05:49:50;;;;;;;6.03;2.40;;;;;;;;;;10414884;28;20048;-78
2023/05/30 05:54:52;;;;;;;7.07;2.65;;;;;;;;;;10416376;28;20048;-78
2023/05/30 05:59:55;;;;;;;5.50;2.87;;;;;;;;;;10408596;28;20034;-78
2023/05/30 06:04:59;;;;;;;6.38;3.10;;;;;;;;;;10415085;28;20042;-79
2023/05/30 06:10:03;;;;;;;10.40;2.70;;;;;;;;;;10412823;28;20065;-78
2023/05/30 06:15:06;;;;;;;5.03;2.38;;;;;;;;;;10413506;28;20503;-79
2023/05/30 06:20:09;;;;;;;;;;;;;;;;;;10413852;28;20053;-77
2023/05/30 06:25:13;;;;;;;6.20;2.67;;;;;;;;;;10412597;28;19960;-77
2023/05/30 06:30:16;;;;;;;5.85;2.80;;;;;;;;;;10414919;28;20600;-78
2023/05/30 06:35:19;;;;;;;7.10;2.80;;;;;;;;;;10414235;28;20149;-78
2023/05/30 06:40:23;;;;;;;5.70;2.40;;;;;;;;;;10412592;28;20130;-78
2023/05/30 06:45:26;;;;;;;4.30;2.47;;;;;;;;;;10409487;28;20109;-78
2023/05/30 06:50:29;;;;;;;4.20;2.00;;;;;;;;;;10406240;28;20065;-78
2023/05/30 06:55:34;;;;;;;4.60;2.42;;;;;;;;;;10415156;28;20139;-78
2023/05/30 07:00:38;;;;;;;6.05;2.67;;;;;;;;;;10416529;28;20041;-75
2023/05/30 07:05:41;;;;;;;;;;;;;;;;;;10421037;28;20060;-78
2023/05/30 07:10:45;;;;;;;8.17;3.03;;;;;;;;;;10419202;28;19921;-77
2023/05/30 07:15:48;;;;;;;5.85;2.78;;;;;;;;;;10398046;28;20038;-79
2023/05/30 07:20:51;;;;;;;10.60;3.00;;;;;;;;;;10423057;28;20049;-79
2023/05/30 07:25:55;;;;;;;6.70;2.83;;;;;;;;;;10415231;28;20100;-77
2023/05/30 07:30:58;;;;;;;5.40;2.63;;;;;;;;;;10412639;28;20046;-78
2023/05/30 07:36:01;;;;;;;8.87;3.00;;;;;;;;;;10420338;28;20052;-79
2023/05/30 07:41:05;;;;;;;7.03;3.37;;;;;;;;;;10420188;28;20065;-78
2023/05/30 07:46:08;;;;;;;7.40;2.95;;;;;;;;;;10416437;28;20312;-79
2023/05/30 07:51:12;;;;;;;8.07;3.55;;;;;;;;;;10419055;28;20038;-78
2023/05/30 07:56:16;;;;;;;6.75;3.20;;;;;;;;;;10415698;28;20037;-78
2023/05/30 08:01:19;;;;;;;6.07;3.13;;;;;;;;;;10419361;28;20432;-78
2023/05/30 08:06:22;;;;;;;9.48;3.40;;;;;;;;;;10418251;28;20172;-77
2023/05/30 08:11:26;;;;;;;6.53;3.65;;;;;;;;;;10420232;28;20139;-78
2023/05/30 08:16:29;;;;;;;6.70;3.70;;;;;;;;;;10419039;28;20041;-78
2023/05/30 08:21:36;;;;;;;7.07;3.97;;;;;;;;;;10416030;28;20049;-79
2023/05/30 08:26:41;;;;;;;7.10;3.63;;;;;;;;;;10414162;28;20083;-76
2023/05/30 08:31:44;;;;;;;7.78;3.80;;;;;;;;;;10418870;28;20472;-79
2023/05/30 08:36:47;;;;;;;8.70;3.83;;;;;;;;;;10412656;28;21102;-78
2023/05/30 08:41:51;;;;;;;7.55;3.90;;;;;;;;;;10415790;28;20175;-79
2023/05/30 08:46:55;;;;;;;5.93;3.85;;;;;;;;;;10415248;28;20076;-78
2023/05/30 08:51:59;;;;;;;6.82;3.67;;;;;;;;;;10419866;28;20050;-78
2023/05/30 08:57:06;;;;;;;5.43;4.00;;;;;;;;;;10410679;28;20072;-80
2023/05/30 09:02:09;;;;;;;5.20;3.95;;;;;;;;;;10414666;28;20057;-80
2023/05/30 09:07:12;;;;;;;5.18;3.80;;;;;;;;;;10415015;28;20076;-78
2023/05/30 09:12:16;;;;;;;5.13;3.75;;;;;;;;;;10414159;28;20059;-79
2023/05/30 09:17:19;;;;;;;6.35;4.05;;;;;;;;;;10418671;28;20052;-79
2023/05/30 09:22:23;;;;;;;7.47;4.07;;;;;;;;;;10420079;28;20025;-79
2023/05/30 09:27:28;;;;;;;11.93;6.35;;;;;;;;;;10416141;28;20053;-78
2023/05/30 09:32:34;;;;;;;6.68;3.90;;;;;;;;;;10411945;28;20090;-80
2023/05/30 09:37:38;;;;;;;7.18;4.10;;;;;;;;;;10414004;28;20137;-80
2023/05/30 09:42:43;;;;;;;4.63;3.50;;;;;;;;;;10411218;28;20042;-79
2023/05/30 09:47:47;;;;;;;5.03;3.55;;;;;;;;;;10415997;28;20144;-80
2023/05/30 09:52:51;;;;;;;6.57;3.90;;;;;;;;;;10414978;28;20046;-79
2023/05/30 09:57:56;;;;;;;5.97;3.78;;;;;;;;;;10413300;28;20045;-79
2023/05/30 10:02:59;;;;;;;8.82;4.22;;;;;;;;;;10407329;28;20068;-79
2023/05/30 10:08:02;;;;;;;7.60;4.00;;;;;;;;;;10410627;28;20043;-79
2023/05/30 10:13:07;;;;;;;5.28;3.67;;;;;;;;;;10415247;28;20132;-79
2023/05/30 10:18:10;;;;;;;7.95;3.63;;;;;;;;;;10411246;28;20041;-79
2023/05/30 10:23:13;;;;;;;5.05;4.10;;;;;;;;;;10417897;28;20065;-79
2023/05/30 10:28:21;;;;;;;5.50;3.78;;;;;;;;;;10413163;28;21002;-79
2023/05/30 10:33:26;;;;;;;42.15;7.10;;;;;;;;;;10410291;28;20117;-80
2023/05/30 10:38:52;;;;;;;4.47;3.60;;;;;;;;;;10417470;28;20048;-79
2023/05/30 10:44:02;;;;;;;5.10;3.45;;;;;;;;;;10417980;28;20038;-78
2023/05/30 10:49:05;;;;;;;5.55;3.63;;;;;;;;;;10419269;28;20033;-79
2023/05/30 10:54:08;;;;;;;6.75;4.05;;;;;;;;;;10421290;28;20060;-79
2023/05/30 10:59:13;;;;;;;5.40;3.80;;;;;;;;;;10419686;28;20481;-79
2023/05/30 11:04:16;;;;;;;5.43;4.00;;;;;;;;;;10420890;28;20036;-79
2023/05/30 11:09:19;;;;;;;5.97;4.13;;;;;;;;;;10418113;28;20061;-78
2023/05/30 11:14:26;;;;;;;7.80;3.47;;;;;;;;;;10402585;28;20415;-78
2023/05/30 11:19:40;;;;;;;6.57;4.00;;;;;;;;;;10402288;28;20121;-79
2023/05/30 11:24:43;;;;;;;5.18;3.58;;;;;;;;;;10418986;28;20045;-79
2023/05/30 11:29:51;;;;;;;6.03;3.47;;;;;;;;;;10422731;28;20091;-78
2023/05/30 11:34:58;;;;;;;5.95;3.08;;;;;;;;;;10414838;28;20103;-79
2023/05/30 11:40:12;;;;;;;5.40;3.35;;;;;;;;;;10417650;28;20116;-78
2023/05/30 11:45:17;;;;;;;5.68;3.15;;;;;;;;;;10417061;28;20502;-78
2023/05/30 11:50:20;;;;;;;6.88;3.45;;;;;;;;;;10418640;28;20056;-77
2023/05/30 11:55:23;;;;;;;4.90;3.50;;;;;;;;;;10419339;28;20100;-78
2023/05/30 12:00:28;;;;;;;4.68;3.20;;;;;;;;;;10416680;28;20057;-77
2023/05/30 12:05:31;;;;;;;9.82;4.80;;;;;;;;;;10419623;28;20068;-78
2023/05/30 12:10:34;;;;;;;5.18;3.45;;;;;;;;;;10417940;28;20049;-78
2023/05/30 12:15:39;;;;;;;8.93;3.15;;;;;;;;;;10416734;28;20049;-78
2023/05/30 12:20:42;;;;;;;4.82;2.88;;;;;;;;;;10416441;28;20103;-78
2023/05/30 12:25:49;;;;;;;7.50;3.80;;;;;;;;;;10415600;28;20034;-79
2023/05/30 12:30:53;;;;;;;7.97;3.08;;;;;;;;;;10416410;28;20053;-79
2023/05/30 12:35:57;;;;;;;4.88;2.65;;;;;;;;;;10407560;28;20101;-79
2023/05/30 12:41:00;;;;;;;5.03;2.83;;;;;;;;;;10415181;28;20060;-76
2023/05/30 12:46:08;;;;;;;4.80;2.67;;;;;;;;;;10409287;28;20116;-77
2023/05/30 12:51:11;;;;;;;7.40;3.17;;;;;;;;;;10411543;28;20065;-79
2023/05/30 12:56:14;;;;;;;6.68;3.30;;;;;;;;;;10413759;28;20101;-77
2023/05/30 13:01:19;;;;;;;4.97;2.92;;;;;;;;;;10416681;28;20061;-77
2023/05/30 13:06:22;;;;;;;5.30;2.95;;;;;;;;;;10410905;28;20056;-78
2023/05/30 13:11:25;;;;;;;7.95;3.45;;;;;;;;;;10417760;28;20046;-78
2023/05/30 13:16:31;;;;;;;8.10;3.47;;;;;;;;;;10413487;28;20068;-78
2023/05/30 13:21:41;;;;;;;6.18;2.65;;;;;;;;;;10417963;28;20064;-77
2023/05/30 13:26:44;;;;;;;8.00;2.92;;;;;;;;;;10413034;28;20065;-77
2023/05/30 13:31:48;;;;;;;6.20;3.17;;;;;;;;;;10411745;28;20635;-77
2023/05/30 13:36:53;;;;;;;6.15;2.40;;;;;;;;;;10415397;28;20117;-78
2023/05/30 13:41:56;;;;;;;4.95;2.80;;;;;;;;;;10417340;28;20034;-79
2023/05/30 13:47:00;;;;;;;6.05;2.90;;;;;;;;;;10415802;28;20098;-78
2023/05/30 13:52:05;;;;;;;6.22;2.50;;;;;;;;;;10411558;28;20369;-78
2023/05/30 13:57:08;;;;;;;5.25;2.70;;;;;;;;;;10412165;28;20037;-78
2023/05/30 14:02:12;;;;;;;9.63;3.30;;;;;;;;;;10410260;28;20095;-78
2023/05/30 14:07:14;;;;;;;9.85;2.80;;;;;;;;;;10414895;28;20300;-77
2023/05/30 14:12:17;;;;;;;4.45;2.75;;;;;;;;;;10415249;28;20045;-76
2023/05/30 14:17:21;;;;;;;6.07;2.78;;;;;;;;;;10422441;28;20129;-79
2023/05/30 14:22:24;;;;;;;6.05;3.03;;;;;;;;;;10419956;28;20217;-77
2023/05/30 14:27:26;;;;;;;6.78;2.58;;;;;;;;;;10403990;28;20041;-77
2023/05/30 14:32:31;;;;;;;6.00;2.97;;;;;;;;;;10421194;28;20033;-78
2023/05/30 14:37:35;;;;;;;5.75;2.90;;;;;;;;;;10414458;28;20097;-79
2023/05/30 14:42:38;;;;;;;8.15;2.90;;;;;;;;;;10415337;28;20101;-78
2023/05/30 14:47:42;;;;;;;4.78;3.28;;;;;;;;;;10421906;28;20156;-77
2023/05/30 14:52:45;;;;;;;4.43;2.70;;;;;;;;;;10417402;28;20456;-78
2023/05/30 14:57:48;;;;;;;6.30;3.20;;;;;;;;;;10425350;28;20046;-78
2023/05/30 15:02:52;;;;;;;9.82;3.88;;;;;;;;;;10421166;28;20037;-77
2023/05/30 15:07:56;;;;;;;5.05;2.83;;;;;;;;;;10418049;28;20038;-78
2023/05/30 15:12:59;;;;;;;6.50;2.95;;;;;;;;;;10418679;28;20041;-77
2023/05/30 15:18:03;;;;;;;7.45;2.53;;;;;;;;;;10418693;28;20049;-77
2023/05/30 15:23:06;;;;;;;6.38;2.65;;;;;;;;;;10417210;28;20042;-78
2023/05/30 15:28:09;;;;;;;6.82;2.88;;;;;;;;;;10419835;28;20069;-78
2023/05/30 15:33:12;;;;;;;5.28;2.92;;;;;;;;;;10418393;28;20037;-78
2023/05/30 15:38:15;;;;;;;7.45;3.00;;;;;;;;;;10417683;28;20088;-78
2023/05/30 15:43:18;;;;;;;6.43;2.72;;;;;;;;;;10421512;28;20060;-79
2023/05/30 15:48:22;;;;;;;7.53;2.90;;;;;;;;;;10416495;28;20045;-77
2023/05/30 15:53:25;;;;;;;5.75;2.80;;;;;;;;;;10416156;28;20089;-78
2023/05/30 15:58:28;;;;;;;5.53;2.85;;;;;;;;;;10414247;28;20081;-77
2023/05/30 16:03:32;;;;;;;4.97;2.40;;;;;;;;;;10415864;28;20081;-79
2023/05/30 16:08:35;;;;;;;5.10;2.60;;;;;;;;;;10416717;28;20046;-78
2023/05/30 16:13:38;;;;;;;5.75;3.28;;;;;;;;;;10412799;28;20042;-77
2023/05/30 16:18:42;;;;;;;7.07;2.88;;;;;;;;;;10416328;28;20080;-79
2023/05/30 16:23:45;;;;;;;7.25;3.08;;;;;;;;;;10415605;28;20037;-78
2023/05/30 16:28:48;;;;;;;5.28;2.92;;;;;;;;;;10417803;28;20953;-78
2023/05/30 16:33:55;;;;;;;6.22;3.00;;;;;;;;;;10415669;28;20492;-78
2023/05/30 16:38:57;;;;;;;7.25;3.17;;;;;;;;;;10414444;28;20041;-79
2023/05/30 16:44:01;;;;;;;7.70;2.85;;;;;;;;;;10408146;28;20042;-78
2023/05/30 16:49:03;;;;;;;;;;;;;;;;;;10417593;28;20697;-77
2023/05/30 16:54:09;;;;;;;9.00;3.63;;;;;;;;;;10393880;28;19936;-78
2023/05/30 16:59:12;;;;;;;5.28;2.78;;;;;;;;;;10412291;28;20314;-77
2023/05/30 17:04:15;;;;;;;6.28;3.05;;;;;;;;;;10413869;28;20088;-78
2023/05/30 17:09:19;;;;;;;8.18;3.42;;;;;;;;;;10415953;28;20049;-77
2023/05/30 17:14:24;;;;;;;5.85;3.00;;;;;;;;;;10412241;28;20041;-76
2023/05/30 17:19:27;;;;;;;5.30;2.80;;;;;;;;;;10413510;28;20069;-76
2023/05/30 17:24:32;;;;;;;8.70;3.15;;;;;;;;;;10415842;28;20193;-77
2023/05/30 17:29:35;;;;;;;4.75;2.80;;;;;;;;;;10412452;28;20096;-76
2023/05/30 17:34:38;;;;;;;5.28;2.90;;;;;;;;;;10412833;28;20041;-77
2023/05/30 17:39:42;;;;;;;6.10;3.20;;;;;;;;;;10416002;28;20521;-78
2023/05/30 17:44:46;;;;;;;5.57;3.13;;;;;;;;;;10408329;28;20041;-76
2023/05/30 17:49:49;;;;;;;7.82;3.22;;;;;;;;;;10407710;28;20045;-76
2023/05/30 17:54:53;;;;;;;5.40;2.75;;;;;;;;;;10410352;28;20041;-75
2023/05/30 17:59:55;;;;;;;9.20;3.30;;;;;;;;;;10409387;28;20073;-75
2023/05/30 18:04:58;;;;;;;5.95;3.22;;;;;;;;;;10392122;28;20037;-75
2023/05/30 18:10:02;;;;;;;6.63;3.33;;;;;;;;;;10403484;28;20162;-75
2023/05/30 18:15:07;;;;;;;7.22;3.05;;;;;;;;;;10404370;28;20048;-74
2023/05/30 18:20:10;;;;;;;8.02;3.10;;;;;;;;;;10410462;28;20045;-74
2023/05/30 18:25:13;;;;;;;;;;;;;;;;;;10411089;28;20072;-87
2023/05/30 18:30:17;;;;;;;7.07;3.00;;;;;;;;;;10409663;28;20661;-78
2023/05/30 18:35:20;;;;;;;6.10;2.97;;;;;;;;;;10414641;28;20046;-78
2023/05/30 18:40:22;;;;;;;7.28;3.22;;;;;;;;;;10414008;28;20038;-78
2023/05/30 18:45:27;;;;;;;5.22;2.88;;;;;;;;;;10393431;28;20348;-78
2023/05/30 18:50:30;;;;;;;6.13;2.90;;;;;;;;;;10412751;28;20038;-79
2023/05/30 18:55:33;;;;;;;6.30;2.95;;;;;;;;;;10412291;28;20060;-79
2023/05/30 19:00:37;;;;;;;5.93;2.88;;;;;;;;;;10416721;28;20069;-78
2023/05/30 19:05:40;;;;;;;7.20;3.22;;;;;;;;;;10420696;28;20081;-78
2023/05/30 19:10:43;;;;;;;7.68;3.10;;;;;;;;;;10401093;28;20069;-78
2023/05/30 19:15:49;;;;;;;5.38;2.65;;;;;;;;;;10414898;28;20133;-77
2023/05/30 19:20:53;;;;;;;7.60;3.13;;;;;;;;;;10421651;28;20053;-77
2023/05/30 19:25:57;;;;;;;7.05;3.10;;;;;;;;;;10411636;28;20025;-78
2023/05/30 19:31:02;;;;;;;8.77;3.90;;;;;;;;;;10414706;28;20046;-75
2023/05/30 19:36:05;;;;;;;5.60;2.97;;;;;;;;;;10416736;28;20033;-78
2023/05/30 19:41:08;;;;;;;8.02;3.50;;;;;;;;;;10416573;28;20068;-78
2023/05/30 19:46:12;;;;;;;7.95;3.00;;;;;;;;;;10414699;28;20037;-78
2023/05/30 19:51:15;;;;;;;5.70;3.33;;;;;;;;;;10411470;28;20042;-78
2023/05/30 19:56:18;;;;;;;5.78;2.90;;;;;;;;;;10419217;28;20038;-77
2023/05/30 20:01:22;;;;;;;7.23;3.27;;;;;;;;;;10413951;28;20057;-76
2023/05/30 20:06:29;;;;;;;7.35;3.40;;;;;;;;;;10415794;28;20041;-77
2023/05/30 20:11:32;;;;;;;7.65;2.97;;;;;;;;;;10415216;28;20118;-77
2023/05/30 20:16:36;;;;;;;6.25;3.28;;;;;;;;;;10416106;28;20041;-77
2023/05/30 20:21:38;;;;;;;8.65;3.10;;;;;;;;;;10407939;28;20060;-79
2023/05/30 20:26:41;;;;;;;8.73;4.07;;;;;;;;;;10413220;28;20034;-78
2023/05/30 20:31:45;;;;;;;7.53;3.40;;;;;;;;;;10411278;28;20041;-77
2023/05/30 20:36:48;;;;;;;8.40;3.33;;;;;;;;;;10409134;28;20046;-79
2023/05/30 20:41:51;;;;;;;8.93;3.40;;;;;;;;;;10416779;28;20041;-77
2023/05/30 20:46:55;;;;;;;10.47;3.30;;;;;;;;;;10411736;28;20110;-78
2023/05/30 20:51:58;;;;;;;8.27;3.35;;;;;;;;;;10411878;28;20049;-78
2023/05/30 20:57:02;;;;;;;7.45;3.20;;;;;;;;;;10413877;28;20076;-78
2023/05/30 21:02:04;;;;;;;;;;;;;;;;;;10412993;28;20705;-78
2023/05/30 21:07:08;;;;;;;5.00;2.83;;;;;;;;;;10410979;28;19935;-78
2023/05/30 21:12:11;;;;;;;6.82;3.33;;;;;;;;;;10408077;28;20049;-77
2023/05/30 21:17:13;;;;;;;8.10;3.60;;;;;;;;;;10410505;28;20148;-79
2023/05/30 21:22:18;;;;;;;10.57;4.75;;;;;;;;;;10415850;28;20301;-78
2023/05/30 21:27:20;;;;;;;8.27;3.22;;;;;;;;;;10407303;28;20037;-79
2023/05/30 21:32:23;;;;;;;6.78;3.45;;;;;;;;;;10416402;28;20041;-79
2023/05/30 21:37:27;;;;;;;9.67;3.63;;;;;;;;;;10412591;28;20046;-78
2023/05/30 21:42:29;;;;;;;6.32;3.03;;;;;;;;;;10411639;28;20085;-79
2023/05/30 21:47:32;;;;;;;11.52;3.85;;;;;;;;;;10413922;28;20477;-77
2023/05/30 21:52:37;;;;;;;8.13;3.10;;;;;;;;;;10410590;28;20096;-77
2023/05/30 21:57:39;;;;;;;10.55;3.15;;;;;;;;;;10410443;28;20420;-77
2023/05/30 22:02:42;;;;;;;6.83;3.37;;;;;;;;;;10414191;28;20042;-78
2023/05/30 22:07:46;;;;;;;6.40;3.10;;;;;;;;;;10411152;28;20515;-77
2023/05/30 22:12:49;;;;;;;6.50;3.22;;;;;;;;;;10413450;28;20045;-78
2023/05/30 22:17:51;;;;;;;4.32;2.50;;;;;;;;;;10411862;28;20072;-80
2023/05/30 22:22:57;;;;;;;4.68;3.05;;;;;;;;;;10418698;28;20065;-75
2023/05/30 22:28:00;;;;;;;7.47;3.20;;;;;;;;;;10410643;28;20103;-77
2023/05/30 22:33:02;;;;;;;8.20;3.30;;;;;;;;;;10426200;28;20097;-77
2023/05/30 22:38:06;;;;;;;6.68;3.20;;;;;;;;;;10416992;28;20061;-76
2023/05/30 22:43:09;;;;;;;5.97;2.97;;;;;;;;;;10413870;28;20098;-79
2023/05/30 22:48:11;;;;;;;9.13;2.92;;;;;;;;;;10415878;28;20060;-78
2023/05/30 22:53:15;;;;;;;8.35;3.85;;;;;;;;;;10419973;28;20417;-78
2023/05/30 22:58:18;;;;;;;7.70;2.80;;;;;;;;;;10421370;28;20100;-77
2023/05/30 23:03:20;;;;;;;6.72;3.25;;;;;;;;;;10417170;28;20038;-78
2023/05/30 23:08:25;;;;;;;7.63;3.13;;;;;;;;;;10421305;28;20076;-78
2023/05/30 23:13:27;;;;;;;6.30;2.97;;;;;;;;;;10417188;28;20056;-77
2023/05/30 23:18:30;;;;;;;7.40;3.00;;;;;;;;;;10395052;28;20045;-77
2023/05/30 23:23:34;;;;;;;6.88;2.67;;;;;;;;;;10413003;28;20384;-77
2023/05/30 23:28:36;;;;;;;5.43;2.88;;;;;;;;;;10418193;28;20052;-77
2023/05/30 23:33:39;;;;;;;6.20;2.60;;;;;;;;;;10419197;28;20069;-77
2023/05/30 23:38:43;;;;;;;7.22;2.78;;;;;;;;;;10400123;28;20044;-78
2023/05/30 23:43:46;;;;;;;5.05;2.42;;;;;;;;;;10420585;28;20118;-77
2023/05/30 23:48:49;;;;;;;6.93;2.33;;;;;;;;;;10414352;28;20156;-78
2023/05/30 23:53:54;;;;;;;8.63;2.43;;;;;;;;;;10416750;28;20124;-78
2023/05/30 23:58:57;;;;;;;5.43;2.45;;;;;;;;;;10414537;28;20041;-79
